sensor_id;sensor_type;location;lat;lon;timestamp;pressure;altitude;pressure_sealevel;temperature;humidity
53546;BME280;39432;51.902;10.844;2023-04-16T00:00:02;99771.50;;;9.74;100.00
53546;BME280;39432;51.902;10.844;2023-04-16T00:02:38;99778.78;;;9.68;100.00
53546;BME280;39432;51.902;10.844;2023-04-16T00:05:08;99783.91;;;9.65;100.00
53546;BME280;39432;51.902;10.844;2023-04-16T00:07:40;99795.66;;;9.65;100.00
53546;BME280;39432;51.902;10.844;2023-04-16T00:10:10;99799.81;;;9.68;100.00
53546;BME280;39432;51.902;10.844;2023-04-16T00:12:40;99807.66;;;9.81;100.00
53546;BME280;39432;51.902;10.844;2023-04-16T00:15:10;99803.75;;;9.77;100.00
53546;BME280;39432;51.902;10.844;2023-04-16T00:17:39;99804.75;;;9.54;100.00
53546;BME280;39432;51.902;10.844;2023-04-16T00:20:09;99806.75;;;9.75;100.00
53546;BME280;39432;51.902;10.844;2023-04-16T00:22:42;99800.94;;;9.55;100.00
53546;BME280;39432;51.902;10.844;2023-04-16T00:25:11;99800.78;;;9.45;100.00
53546;BME280;39432;51.902;10.844;2023-04-16T00:27:41;99800.81;;;9.79;100.00
53546;BME280;39432;51.902;10.844;2023-04-16T00:30:12;99799.28;;;9.54;100.00
53546;BME280;39432;51.902;10.844;2023-04-16T00:32:42;99803.63;;;9.84;100.00
53546;BME280;39432;51.902;10.844;2023-04-16T00:35:11;99810.00;;;9.72;100.00
53546;BME280;39432;51.902;10.844;2023-04-16T00:37:44;99803.94;;;9.70;100.00
53546;BME280;39432;51.902;10.844;2023-04-16T00:40:14;99799.88;;;9.56;100.00
53546;BME280;39432;51.902;10.844;2023-04-16T00:42:44;99799.31;;;9.88;100.00
53546;BME280;39432;51.902;10.844;2023-04-16T00:45:14;99791.34;;;9.86;100.00
53546;BME280;39432;51.902;10.844;2023-04-16T00:47:44;99789.69;;;9.52;100.00
53546;BME280;39432;51.902;10.844;2023-04-16T00:50:13;99787.63;;;9.13;100.00
53546;BME280;39432;51.902;10.844;2023-04-16T00:52:47;99799.88;;;9.56;100.00
53546;BME280;39432;51.902;10.844;2023-04-16T00:55:17;99806.41;;;9.72;100.00
53546;BME280;39432;51.902;10.844;2023-04-16T00:57:48;99802.81;;;10.00;100.00
53546;BME280;39432;51.902;10.844;2023-04-16T01:00:19;99791.84;;;9.83;100.00
53546;BME280;39432;51.902;10.844;2023-04-16T01:02:49;99788.72;;;9.74;100.00
53546;BME280;39432;51.902;10.844;2023-04-16T01:05:19;99790.59;;;9.57;100.00
53546;BME280;39432;51.902;10.844;2023-04-16T01:07:52;99796.81;;;9.69;100.00
53546;BME280;39432;51.902;10.844;2023-04-16T01:10:22;99797.56;;;10.15;100.00
53546;BME280;39432;51.902;10.844;2023-04-16T01:12:51;99798.91;;;9.96;100.00
53546;BME280;39432;51.902;10.844;2023-04-16T01:15:21;99792.44;;;9.68;100.00
53546;BME280;39432;51.902;10.844;2023-04-16T01:17:51;99796.81;;;10.03;100.00
53546;BME280;39432;51.902;10.844;2023-04-16T01:20:21;99789.44;;;10.03;100.00
53546;BME280;39432;51.902;10.844;2023-04-16T01:22:54;99793.34;;;10.24;100.00
53546;BME280;39432;51.902;10.844;2023-04-16T01:25:23;99792.00;;;10.44;100.00
53546;BME280;39432;51.902;10.844;2023-04-16T01:27:53;99785.25;;;9.96;100.00
53546;BME280;39432;51.902;10.844;2023-04-16T01:30:25;99781.06;;;9.43;100.00
53546;BME280;39432;51.902;10.844;2023-04-16T01:33:17;99788.19;;;9.77;100.00
53546;BME280;39432;51.902;10.844;2023-04-16T01:35:47;99784.41;;;9.62;100.00
53546;BME280;39432;51.902;10.844;2023-04-16T01:38:19;99795.06;;;9.63;100.00
53546;BME280;39432;51.902;10.844;2023-04-16T01:40:49;99792.66;;;9.67;100.00
53546;BME280;39432;51.902;10.844;2023-04-16T01:43:18;99799.06;;;9.72;100.00
53546;BME280;39432;51.902;10.844;2023-04-16T01:45:48;99801.47;;;9.86;100.00
53546;BME280;39432;51.902;10.844;2023-04-16T01:48:18;99804.19;;;9.69;100.00
53546;BME280;39432;51.902;10.844;2023-04-16T01:50:48;99798.88;;;9.62;100.00
53546;BME280;39432;51.902;10.844;2023-04-16T01:53:20;99803.09;;;9.70;100.00
53546;BME280;39432;51.902;10.844;2023-04-16T01:55:49;99811.38;;;9.58;100.00
53546;BME280;39432;51.902;10.844;2023-04-16T01:58:19;99818.25;;;9.77;100.00
53546;BME280;39432;51.902;10.844;2023-04-16T02:00:49;99812.03;;;9.65;100.00
53546;BME280;39432;51.902;10.844;2023-04-16T02:03:19;99805.41;;;9.61;100.00
53546;BME280;39432;51.902;10.844;2023-04-16T02:05:51;99812.97;;;9.26;100.00
53546;BME280;39432;51.902;10.844;2023-04-16T02:08:24;99814.66;;;9.43;100.00
53546;BME280;39432;51.902;10.844;2023-04-16T02:10:55;99816.13;;;9.34;100.00
53546;BME280;39432;51.902;10.844;2023-04-16T02:13:25;99818.16;;;9.27;100.00
53546;BME280;39432;51.902;10.844;2023-04-16T02:15:55;99823.56;;;9.39;100.00
53546;BME280;39432;51.902;10.844;2023-04-16T02:19:00;99827.94;;;9.23;100.00
53546;BME280;39432;51.902;10.844;2023-04-16T02:21:33;99831.28;;;9.13;100.00
53546;BME280;39432;51.902;10.844;2023-04-16T02:24:06;99834.38;;;9.05;100.00
53546;BME280;39432;51.902;10.844;2023-04-16T02:26:36;99838.03;;;9.11;100.00
53546;BME280;39432;51.902;10.844;2023-04-16T02:29:12;99836.44;;;8.98;100.00
53546;BME280;39432;51.902;10.844;2023-04-16T02:31:49;99839.38;;;9.08;100.00
53546;BME280;39432;51.902;10.844;2023-04-16T02:34:19;99845.03;;;9.18;100.00
53546;BME280;39432;51.902;10.844;2023-04-16T02:36:49;99842.16;;;8.85;100.00
53546;BME280;39432;51.902;10.844;2023-04-16T02:39:22;99852.22;;;9.36;100.00
53546;BME280;39432;51.902;10.844;2023-04-16T02:41:53;99849.72;;;9.35;100.00
53546;BME280;39432;51.902;10.844;2023-04-16T02:44:23;99852.91;;;9.60;100.00
53546;BME280;39432;51.902;10.844;2023-04-16T02:46:53;99839.06;;;9.50;100.00
53546;BME280;39432;51.902;10.844;2023-04-16T02:49:23;99844.53;;;9.50;100.00
53546;BME280;39432;51.902;10.844;2023-04-16T02:51:52;99847.38;;;9.27;100.00
53546;BME280;39432;51.902;10.844;2023-04-16T02:54:25;99839.84;;;9.05;100.00
53546;BME280;39432;51.902;10.844;2023-04-16T02:56:54;99839.84;;;9.05;100.00
53546;BME280;39432;51.902;10.844;2023-04-16T02:59:24;99839.25;;;9.03;100.00
53546;BME280;39432;51.902;10.844;2023-04-16T03:01:54;99851.53;;;9.29;100.00
53546;BME280;39432;51.902;10.844;2023-04-16T03:04:24;99848.47;;;8.74;100.00
53546;BME280;39432;51.902;10.844;2023-04-16T03:06:53;99855.75;;;9.08;100.00
53546;BME280;39432;51.902;10.844;2023-04-16T03:09:26;99862.38;;;9.12;100.00
53546;BME280;39432;51.902;10.844;2023-04-16T03:11:55;99858.72;;;8.95;100.00
53546;BME280;39432;51.902;10.844;2023-04-16T03:14:25;99861.00;;;8.98;100.00
53546;BME280;39432;51.902;10.844;2023-04-16T03:16:55;99863.81;;;9.03;100.00
53546;BME280;39432;51.902;10.844;2023-04-16T03:19:24;99866.09;;;8.94;100.00
53546;BME280;39432;51.902;10.844;2023-04-16T03:21:54;99877.22;;;9.05;100.00
53546;BME280;39432;51.902;10.844;2023-04-16T03:24:26;99872.44;;;9.12;100.00
53546;BME280;39432;51.902;10.844;2023-04-16T03:26:56;99871.81;;;8.81;100.00
53546;BME280;39432;51.902;10.844;2023-04-16T03:29:28;99878.34;;;8.80;100.00
53546;BME280;39432;51.902;10.844;2023-04-16T03:31:58;99881.81;;;9.16;100.00
53546;BME280;39432;51.902;10.844;2023-04-16T03:34:27;99888.44;;;9.32;100.00
53546;BME280;39432;51.902;10.844;2023-04-16T03:36:57;99884.63;;;9.33;100.00
53546;BME280;39432;51.902;10.844;2023-04-16T03:39:29;99892.34;;;9.64;100.00
53546;BME280;39432;51.902;10.844;2023-04-16T03:41:59;99876.81;;;9.24;100.00
53546;BME280;39432;51.902;10.844;2023-04-16T03:44:29;99871.44;;;9.01;100.00
53546;BME280;39432;51.902;10.844;2023-04-16T03:47:00;99870.06;;;8.63;100.00
53546;BME280;39432;51.902;10.844;2023-04-16T03:49:29;99882.03;;;8.74;100.00
53546;BME280;39432;51.902;10.844;2023-04-16T03:51:59;99881.63;;;8.94;100.00
53546;BME280;39432;51.902;10.844;2023-04-16T03:54:32;99883.69;;;8.87;100.00
53546;BME280;39432;51.902;10.844;2023-04-16T03:57:13;99888.75;;;8.95;100.00
53546;BME280;39432;51.902;10.844;2023-04-16T03:59:44;99881.69;;;8.70;100.00
53546;BME280;39432;51.902;10.844;2023-04-16T04:02:15;99895.31;;;8.82;100.00
53546;BME280;39432;51.902;10.844;2023-04-16T04:04:46;99898.72;;;9.01;100.00
53546;BME280;39432;51.902;10.844;2023-04-16T04:07:16;99904.91;;;8.85;100.00
53546;BME280;39432;51.902;10.844;2023-04-16T04:09:49;99906.47;;;8.81;100.00
53546;BME280;39432;51.902;10.844;2023-04-16T04:12:19;99900.31;;;8.74;100.00
53546;BME280;39432;51.902;10.844;2023-04-16T04:14:49;99904.44;;;8.64;100.00
53546;BME280;39432;51.902;10.844;2023-04-16T04:17:19;99900.19;;;8.80;100.00
53546;BME280;39432;51.902;10.844;2023-04-16T04:19:49;99904.06;;;8.84;100.00
53546;BME280;39432;51.902;10.844;2023-04-16T04:22:29;99903.25;;;8.60;100.00
53546;BME280;39432;51.902;10.844;2023-04-16T04:25:01;99911.44;;;8.60;100.00
53546;BME280;39432;51.902;10.844;2023-04-16T04:27:32;99912.38;;;8.78;100.00
53546;BME280;39432;51.902;10.844;2023-04-16T04:30:02;99912.03;;;8.39;100.00
53546;BME280;39432;51.902;10.844;2023-04-16T04:32:32;99921.53;;;8.48;100.00
53546;BME280;39432;51.902;10.844;2023-04-16T04:35:02;99922.81;;;8.45;100.00
53546;BME280;39432;51.902;10.844;2023-04-16T04:37:32;99933.25;;;8.49;100.00
53546;BME280;39432;51.902;10.844;2023-04-16T04:40:13;99936.69;;;8.67;100.00
53546;BME280;39432;51.902;10.844;2023-04-16T04:42:44;99929.94;;;8.58;100.00
53546;BME280;39432;51.902;10.844;2023-04-16T04:45:14;99932.31;;;8.55;100.00
53546;BME280;39432;51.902;10.844;2023-04-16T04:47:44;99931.34;;;8.84;100.00
53546;BME280;39432;51.902;10.844;2023-04-16T04:50:14;99925.56;;;8.57;100.00
53546;BME280;39432;51.902;10.844;2023-04-16T04:52:44;99933.25;;;8.72;100.00
53546;BME280;39432;51.902;10.844;2023-04-16T04:55:16;99938.38;;;8.68;100.00
53546;BME280;39432;51.902;10.844;2023-04-16T04:57:47;99938.09;;;9.05;100.00
53546;BME280;39432;51.902;10.844;2023-04-16T05:00:18;99928.97;;;8.88;100.00
53546;BME280;39432;51.902;10.844;2023-04-16T05:02:53;99929.81;;;8.53;100.00
53546;BME280;39432;51.902;10.844;2023-04-16T05:05:23;99933.47;;;8.35;100.00
53546;BME280;39432;51.902;10.844;2023-04-16T05:07:52;99939.06;;;8.52;100.00
53546;BME280;39432;51.902;10.844;2023-04-16T05:10:25;99943.59;;;8.58;100.00
53546;BME280;39432;51.902;10.844;2023-04-16T05:12:55;99943.34;;;8.48;100.00
53546;BME280;39432;51.902;10.844;2023-04-16T05:15:24;99946.91;;;8.60;100.00
53546;BME280;39432;51.902;10.844;2023-04-16T05:17:54;99953.66;;;8.46;100.00
53546;BME280;39432;51.902;10.844;2023-04-16T05:20:24;99950.94;;;8.69;100.00
53546;BME280;39432;51.902;10.844;2023-04-16T05:22:54;99952.13;;;8.74;100.00
53546;BME280;39432;51.902;10.844;2023-04-16T05:25:26;99945.47;;;8.69;100.00
53546;BME280;39432;51.902;10.844;2023-04-16T05:27:56;99947.38;;;8.57;100.00
53546;BME280;39432;51.902;10.844;2023-04-16T05:30:25;99959.16;;;8.28;100.00
53546;BME280;39432;51.902;10.844;2023-04-16T05:32:55;99960.16;;;8.45;100.00
53546;BME280;39432;51.902;10.844;2023-04-16T05:35:25;99965.53;;;8.52;100.00
53546;BME280;39432;51.902;10.844;2023-04-16T05:37:54;99959.84;;;8.35;100.00
53546;BME280;39432;51.902;10.844;2023-04-16T05:40:27;99957.81;;;8.60;100.00
53546;BME280;39432;51.902;10.844;2023-04-16T05:42:56;99955.06;;;8.49;100.00
53546;BME280;39432;51.902;10.844;2023-04-16T05:45:26;99964.91;;;8.61;100.00
53546;BME280;39432;51.902;10.844;2023-04-16T05:47:56;99963.75;;;8.57;100.00
53546;BME280;39432;51.902;10.844;2023-04-16T05:50:26;99962.00;;;8.33;100.00
53546;BME280;39432;51.902;10.844;2023-04-16T05:52:56;99967.09;;;8.29;100.00
53546;BME280;39432;51.902;10.844;2023-04-16T05:55:28;99964.06;;;8.07;100.00
53546;BME280;39432;51.902;10.844;2023-04-16T05:57:58;99983.28;;;8.42;100.00
53546;BME280;39432;51.902;10.844;2023-04-16T06:00:30;99978.56;;;8.19;100.00
53546;BME280;39432;51.902;10.844;2023-04-16T06:03:00;99978.34;;;8.21;100.00
53546;BME280;39432;51.902;10.844;2023-04-16T06:05:30;99981.72;;;8.05;100.00
53546;BME280;39432;51.902;10.844;2023-04-16T06:08:00;99983.53;;;8.23;100.00
53546;BME280;39432;51.902;10.844;2023-04-16T06:10:32;99991.78;;;8.04;100.00
53546;BME280;39432;51.902;10.844;2023-04-16T06:13:02;99990.31;;;7.90;100.00
53546;BME280;39432;51.902;10.844;2023-04-16T06:15:32;99995.06;;;7.95;100.00
53546;BME280;39432;51.902;10.844;2023-04-16T06:18:02;99998.47;;;7.90;100.00
53546;BME280;39432;51.902;10.844;2023-04-16T06:20:31;99996.31;;;7.80;100.00
53546;BME280;39432;51.902;10.844;2023-04-16T06:23:02;99997.69;;;7.71;100.00
53546;BME280;39432;51.902;10.844;2023-04-16T06:25:34;100010.25;;;7.72;100.00
53546;BME280;39432;51.902;10.844;2023-04-16T06:28:04;100019.69;;;7.88;100.00
53546;BME280;39432;51.902;10.844;2023-04-16T06:30:34;100020.88;;;7.92;100.00
53546;BME280;39432;51.902;10.844;2023-04-16T06:33:04;100025.28;;;7.93;100.00
53546;BME280;39432;51.902;10.844;2023-04-16T06:35:33;100024.50;;;8.04;100.00
53546;BME280;39432;51.902;10.844;2023-04-16T06:38:03;100028.00;;;8.35;100.00
53546;BME280;39432;51.902;10.844;2023-04-16T06:40:35;100024.75;;;7.84;100.00
53546;BME280;39432;51.902;10.844;2023-04-16T06:43:05;100030.03;;;7.98;100.00
53546;BME280;39432;51.902;10.844;2023-04-16T06:45:35;100036.91;;;8.00;100.00
53546;BME280;39432;51.902;10.844;2023-04-16T06:48:05;100044.97;;;8.07;100.00
53546;BME280;39432;51.902;10.844;2023-04-16T06:50:35;100047.53;;;8.50;100.00
53546;BME280;39432;51.902;10.844;2023-04-16T06:53:04;100048.81;;;8.36;100.00
53546;BME280;39432;51.902;10.844;2023-04-16T06:55:37;100038.97;;;8.16;100.00
53546;BME280;39432;51.902;10.844;2023-04-16T06:58:06;100044.53;;;8.40;100.00
53546;BME280;39432;51.902;10.844;2023-04-16T07:00:36;100044.09;;;8.43;100.00
53546;BME280;39432;51.902;10.844;2023-04-16T07:03:06;100052.19;;;8.31;100.00
53546;BME280;39432;51.902;10.844;2023-04-16T07:05:36;100046.38;;;8.28;100.00
53546;BME280;39432;51.902;10.844;2023-04-16T07:08:06;100044.78;;;8.38;100.00
53546;BME280;39432;51.902;10.844;2023-04-16T07:10:39;100037.47;;;8.21;100.00
53546;BME280;39432;51.902;10.844;2023-04-16T07:13:09;100042.72;;;8.34;100.00
53546;BME280;39432;51.902;10.844;2023-04-16T07:15:38;100040.19;;;8.21;100.00
53546;BME280;39432;51.902;10.844;2023-04-16T07:18:08;100037.00;;;8.24;100.00
53546;BME280;39432;51.902;10.844;2023-04-16T07:20:38;100036.84;;;8.18;100.00
53546;BME280;39432;51.902;10.844;2023-04-16T07:23:08;100050.47;;;8.18;100.00
53546;BME280;39432;51.902;10.844;2023-04-16T07:25:40;100054.41;;;8.23;100.00
53546;BME280;39432;51.902;10.844;2023-04-16T07:28:10;100049.25;;;8.03;100.00
53546;BME280;39432;51.902;10.844;2023-04-16T07:30:42;100051.75;;;8.04;100.00
53546;BME280;39432;51.902;10.844;2023-04-16T07:33:12;100051.75;;;8.04;100.00
53546;BME280;39432;51.902;10.844;2023-04-16T07:35:41;100060.34;;;8.19;100.00
53546;BME280;39432;51.902;10.844;2023-04-16T07:38:11;100055.38;;;7.98;100.00
53546;BME280;39432;51.902;10.844;2023-04-16T07:40:44;100062.34;;;7.94;100.00
53546;BME280;39432;51.902;10.844;2023-04-16T07:43:14;100065.41;;;7.86;100.00
53546;BME280;39432;51.902;10.844;2023-04-16T07:45:44;100075.56;;;8.09;100.00
53546;BME280;39432;51.902;10.844;2023-04-16T07:48:14;100067.88;;;7.87;100.00
53546;BME280;39432;51.902;10.844;2023-04-16T07:50:43;100074.66;;;8.15;100.00
53546;BME280;39432;51.902;10.844;2023-04-16T07:53:13;100078.25;;;8.27;100.00
53546;BME280;39432;51.902;10.844;2023-04-16T07:55:45;100090.72;;;8.35;100.00
53546;BME280;39432;51.902;10.844;2023-04-16T07:58:15;100074.75;;;8.08;100.00
53546;BME280;39432;51.902;10.844;2023-04-16T08:00:45;100078.81;;;8.17;100.00
53546;BME280;39432;51.902;10.844;2023-04-16T08:03:16;100080.16;;;8.27;100.00
53546;BME280;39432;51.902;10.844;2023-04-16T08:05:46;100076.03;;;8.06;100.00
53546;BME280;39432;51.902;10.844;2023-04-16T08:08:16;100083.09;;;8.43;100.00
53546;BME280;39432;51.902;10.844;2023-04-16T08:10:48;100080.28;;;8.32;100.00
53546;BME280;39432;51.902;10.844;2023-04-16T08:13:21;100083.09;;;8.43;100.00
53546;BME280;39432;51.902;10.844;2023-04-16T08:15:51;100083.47;;;8.47;100.00
53546;BME280;39432;51.902;10.844;2023-04-16T08:18:21;100092.31;;;8.73;100.00
53546;BME280;39432;51.902;10.844;2023-04-16T08:20:51;100094.56;;;8.64;100.00
53546;BME280;39432;51.902;10.844;2023-04-16T08:23:20;100085.69;;;8.38;100.00
53546;BME280;39432;51.902;10.844;2023-04-16T08:25:53;100094.50;;;8.34;100.00
53546;BME280;39432;51.902;10.844;2023-04-16T08:28:23;100093.69;;;8.33;100.00
53546;BME280;39432;51.902;10.844;2023-04-16T08:30:52;100098.13;;;8.16;100.00
53546;BME280;39432;51.902;10.844;2023-04-16T08:33:22;100108.00;;;8.47;100.00
53546;BME280;39432;51.902;10.844;2023-04-16T08:35:52;100111.03;;;8.57;100.00
53546;BME280;39432;51.902;10.844;2023-04-16T08:38:22;100116.06;;;8.42;100.00
53546;BME280;39432;51.902;10.844;2023-04-16T08:40:55;100109.97;;;8.40;100.00
53546;BME280;39432;51.902;10.844;2023-04-16T08:43:32;100118.53;;;8.43;100.00
53546;BME280;39432;51.902;10.844;2023-04-16T08:46:04;100120.44;;;8.43;100.00
53546;BME280;39432;51.902;10.844;2023-04-16T08:48:34;100121.13;;;8.38;100.00
53546;BME280;39432;51.902;10.844;2023-04-16T08:51:08;100104.69;;;8.27;100.00
53546;BME280;39432;51.902;10.844;2023-04-16T08:53:43;100115.81;;;8.25;100.00
53546;BME280;39432;51.902;10.844;2023-04-16T08:56:20;100120.53;;;8.36;100.00
53546;BME280;39432;51.902;10.844;2023-04-16T08:58:51;100118.31;;;8.27;100.00
53546;BME280;39432;51.902;10.844;2023-04-16T09:01:24;100119.69;;;8.17;100.00
53546;BME280;39432;51.902;10.844;2023-04-16T09:03:55;100117.44;;;8.14;100.00
53546;BME280;39432;51.902;10.844;2023-04-16T09:06:26;100127.56;;;8.07;100.00
53546;BME280;39432;51.902;10.844;2023-04-16T09:08:58;100125.19;;;8.29;100.00
53546;BME280;39432;51.902;10.844;2023-04-16T09:11:33;100134.22;;;8.11;100.00
53546;BME280;39432;51.902;10.844;2023-04-16T09:14:03;100126.69;;;8.13;100.00
53546;BME280;39432;51.902;10.844;2023-04-16T09:16:33;100130.28;;;8.07;100.00
53546;BME280;39432;51.902;10.844;2023-04-16T09:19:04;100139.69;;;8.11;100.00
53546;BME280;39432;51.902;10.844;2023-04-16T09:21:34;100141.66;;;8.41;100.00
53546;BME280;39432;51.902;10.844;2023-04-16T09:24:05;100145.13;;;8.48;100.00
53546;BME280;39432;51.902;10.844;2023-04-16T09:26:40;100146.59;;;8.62;100.00
53546;BME280;39432;51.902;10.844;2023-04-16T09:29:10;100143.81;;;8.51;100.00
53546;BME280;39432;51.902;10.844;2023-04-16T09:31:40;100145.84;;;8.55;100.00
53546;BME280;39432;51.902;10.844;2023-04-16T09:34:10;100136.25;;;8.53;100.00
53546;BME280;39432;51.902;10.844;2023-04-16T09:36:39;100140.88;;;8.52;100.00
53546;BME280;39432;51.902;10.844;2023-04-16T09:39:17;100135.44;;;8.52;100.00
53546;BME280;39432;51.902;10.844;2023-04-16T09:41:51;100139.38;;;8.38;100.00
53546;BME280;39432;51.902;10.844;2023-04-16T09:44:34;100138.41;;;8.62;100.00
53546;BME280;39432;51.902;10.844;2023-04-16T09:47:05;100145.03;;;8.55;100.00
53546;BME280;39432;51.902;10.844;2023-04-16T09:49:40;100144.38;;;8.41;100.00
53546;BME280;39432;51.902;10.844;2023-04-16T09:52:12;100145.88;;;8.18;100.00
53546;BME280;39432;51.902;10.844;2023-04-16T09:54:46;100155.66;;;8.26;100.00
53546;BME280;39432;51.902;10.844;2023-04-16T09:57:23;100151.13;;;8.20;100.00
53546;BME280;39432;51.902;10.844;2023-04-16T09:59:55;100154.50;;;8.34;100.00
53546;BME280;39432;51.902;10.844;2023-04-16T10:02:30;100157.09;;;8.47;100.00
53546;BME280;39432;51.902;10.844;2023-04-16T10:05:01;100159.44;;;8.43;100.00
53546;BME280;39432;51.902;10.844;2023-04-16T10:07:33;100168.66;;;8.61;100.00
53546;BME280;39432;51.902;10.844;2023-04-16T10:10:05;100164.72;;;8.57;100.00
53546;BME280;39432;51.902;10.844;2023-04-16T10:12:37;100165.00;;;8.67;100.00
53546;BME280;39432;51.902;10.844;2023-04-16T10:15:08;100173.50;;;8.89;100.00
53546;BME280;39432;51.902;10.844;2023-04-16T10:17:38;100169.03;;;9.06;100.00
53546;BME280;39432;51.902;10.844;2023-04-16T10:20:08;100168.66;;;8.91;100.00
53546;BME280;39432;51.902;10.844;2023-04-16T10:22:38;100161.41;;;8.85;100.00
53546;BME280;39432;51.902;10.844;2023-04-16T10:25:09;100174.28;;;9.19;100.00
53546;BME280;39432;51.902;10.844;2023-04-16T10:27:42;100154.25;;;8.84;100.00
53546;BME280;39432;51.902;10.844;2023-04-16T10:30:14;100164.91;;;8.74;100.00
53546;BME280;39432;51.902;10.844;2023-04-16T10:32:45;100158.19;;;8.88;100.00
53546;BME280;39432;51.902;10.844;2023-04-16T10:35:18;100164.50;;;9.00;100.00
53546;BME280;39432;51.902;10.844;2023-04-16T10:37:48;100169.78;;;9.13;100.00
53546;BME280;39432;51.902;10.844;2023-04-16T10:40:22;100162.88;;;9.22;100.00
53546;BME280;39432;51.902;10.844;2023-04-16T10:42:58;100157.41;;;9.22;100.00
53546;BME280;39432;51.902;10.844;2023-04-16T10:45:36;100151.88;;;8.76;100.00
53546;BME280;39432;51.902;10.844;2023-04-16T10:48:06;100153.16;;;8.73;100.00
53546;BME280;39432;51.902;10.844;2023-04-16T10:50:37;100165.78;;;8.86;100.00
53546;BME280;39432;51.902;10.844;2023-04-16T10:53:17;100165.47;;;8.64;100.00
53546;BME280;39432;51.902;10.844;2023-04-16T10:56:09;100173.94;;;8.56;100.00
53546;BME280;39432;51.902;10.844;2023-04-16T10:58:43;100178.59;;;8.55;100.00
53546;BME280;39432;51.902;10.844;2023-04-16T11:01:13;100179.28;;;8.81;100.00
53546;BME280;39432;51.902;10.844;2023-04-16T11:03:45;100173.69;;;8.76;100.00
53546;BME280;39432;51.902;10.844;2023-04-16T11:06:20;100183.69;;;8.82;100.00
53546;BME280;39432;51.902;10.844;2023-04-16T11:08:53;100180.06;;;8.69;100.00
53546;BME280;39432;51.902;10.844;2023-04-16T11:11:22;100182.19;;;8.67;100.00
53546;BME280;39432;51.902;10.844;2023-04-16T11:13:56;100182.13;;;8.74;100.00
53546;BME280;39432;51.902;10.844;2023-04-16T11:16:26;100189.09;;;8.70;100.00
53546;BME280;39432;51.902;10.844;2023-04-16T11:18:55;100188.94;;;8.65;100.00
53546;BME280;39432;51.902;10.844;2023-04-16T11:21:25;100189.19;;;8.63;100.00
53546;BME280;39432;51.902;10.844;2023-04-16T11:23:56;100185.81;;;8.80;100.00
53546;BME280;39432;51.902;10.844;2023-04-16T11:26:27;100199.59;;;8.85;100.00
53546;BME280;39432;51.902;10.844;2023-04-16T11:28:59;100196.38;;;8.88;100.00
53546;BME280;39432;51.902;10.844;2023-04-16T11:31:30;100192.72;;;8.94;100.00
53546;BME280;39432;51.902;10.844;2023-04-16T11:34:00;100195.94;;;8.91;100.00
53546;BME280;39432;51.902;10.844;2023-04-16T11:36:41;100204.03;;;8.97;100.00
53546;BME280;39432;51.902;10.844;2023-04-16T11:39:11;100199.00;;;8.94;100.00
53546;BME280;39432;51.902;10.844;2023-04-16T11:41:42;100200.56;;;8.90;100.00
53546;BME280;39432;51.902;10.844;2023-04-16T11:44:22;100201.72;;;8.83;100.00
53546;BME280;39432;51.902;10.844;2023-04-16T11:46:53;100207.06;;;9.19;100.00
53546;BME280;39432;51.902;10.844;2023-04-16T11:49:26;100197.78;;;9.20;100.00
53546;BME280;39432;51.902;10.844;2023-04-16T11:51:57;100194.66;;;9.05;100.00
53546;BME280;39432;51.902;10.844;2023-04-16T11:54:26;100196.72;;;8.80;100.00
53546;BME280;39432;51.902;10.844;2023-04-16T11:57:00;100192.41;;;9.02;100.00
53546;BME280;39432;51.902;10.844;2023-04-16T11:59:33;100193.66;;;8.88;100.00
53546;BME280;39432;51.902;10.844;2023-04-16T12:02:33;100200.97;;;9.17;100.00
53546;BME280;39432;51.902;10.844;2023-04-16T12:05:05;100196.94;;;9.08;100.00
53546;BME280;39432;51.902;10.844;2023-04-16T12:07:44;100203.59;;;9.12;100.00
53546;BME280;39432;51.902;10.844;2023-04-16T12:10:14;100202.50;;;9.02;100.00
53546;BME280;39432;51.902;10.844;2023-04-16T12:12:44;100201.84;;;9.30;100.00
53546;BME280;39432;51.902;10.844;2023-04-16T12:15:16;100206.69;;;9.28;100.00
53546;BME280;39432;51.902;10.844;2023-04-16T12:17:47;100195.44;;;9.36;100.00
53546;BME280;39432;51.902;10.844;2023-04-16T12:20:20;100203.09;;;9.04;100.00
53546;BME280;39432;51.902;10.844;2023-04-16T12:22:50;100202.03;;;9.16;100.00
53546;BME280;39432;51.902;10.844;2023-04-16T12:25:23;100211.31;;;9.15;100.00
53546;BME280;39432;51.902;10.844;2023-04-16T12:27:53;100207.44;;;8.93;100.00
53546;BME280;39432;51.902;10.844;2023-04-16T12:30:27;100207.91;;;8.60;100.00
53546;BME280;39432;51.902;10.844;2023-04-16T12:33:13;100219.28;;;8.87;100.00
53546;BME280;39432;51.902;10.844;2023-04-16T12:35:43;100211.59;;;8.65;100.00
53546;BME280;39432;51.902;10.844;2023-04-16T12:38:13;100217.78;;;8.73;100.00
53546;BME280;39432;51.902;10.844;2023-04-16T12:40:43;100222.81;;;8.76;100.00
53546;BME280;39432;51.902;10.844;2023-04-16T12:43:12;100220.94;;;8.88;100.00
53546;BME280;39432;51.902;10.844;2023-04-16T12:45:45;100224.69;;;8.75;100.00
53546;BME280;39432;51.902;10.844;2023-04-16T12:48:15;100219.28;;;8.87;100.00
53546;BME280;39432;51.902;10.844;2023-04-16T12:50:44;100234.44;;;9.01;100.00
53546;BME280;39432;51.902;10.844;2023-04-16T12:53:14;100223.25;;;8.73;100.00
53546;BME280;39432;51.902;10.844;2023-04-16T12:55:44;100231.28;;;9.28;100.00
53546;BME280;39432;51.902;10.844;2023-04-16T12:58:14;100227.50;;;9.29;100.00
53546;BME280;39432;51.902;10.844;2023-04-16T13:00:46;100222.88;;;9.29;100.00
53546;BME280;39432;51.902;10.844;2023-04-16T13:03:16;100220.59;;;9.26;100.00
53546;BME280;39432;51.902;10.844;2023-04-16T13:05:47;100218.53;;;9.63;100.00